Time;durP1;ratioP1;P1;durP2;ratioP2;P2;SDS_P1;SDS_P2;PMS_P1;PMS_P2;Temp;Humidity;BMP_temperature;BMP_pressure;BME280_temperature;BME280_humidity;BME280_pressure;Samples;Min_cycle;Max_cycle;Signal;HPM_P1;HPM_P2
2023/08/16 00:01:51;;;;;;;26.20;9.85;;;;;;;21.03;74.65;99426.53;6282662;22;20327;-86
2023/08/16 00:04:17;;;;;;;23.20;10.23;;;;;;;21.09;76.11;99444.34;6257507;22;20003;-87
2023/08/16 00:06:42;;;;;;;16.33;8.45;;;;;;;21.19;75.92;99440.41;6256475;22;20026;-86
2023/08/16 00:09:08;;;;;;;16.10;9.23;;;;;;;21.03;78.24;99436.69;6257161;22;20152;-87
2023/08/16 00:11:34;;;;;;;11.95;8.90;;;;;;;20.93;79.06;99426.94;6257093;22;20003;-86
2023/08/16 00:13:59;;;;;;;12.70;8.43;;;;;;;21.03;78.36;99432.00;6255860;22;20014;-85
2023/08/16 00:16:25;;;;;;;13.00;8.52;;;;;;;21.02;78.28;99435.88;6256711;22;20000;-86
2023/08/16 00:18:50;;;;;;;11.88;8.85;;;;;;;20.99;78.84;99420.13;6256962;22;20006;-86
2023/08/16 00:21:16;;;;;;;14.13;8.30;;;;;;;20.88;79.16;99418.97;6256639;22;19999;-86
2023/08/16 00:23:44;;;;;;;13.43;9.73;;;;;;;20.72;81.34;99416.03;6256512;22;20006;-88
2023/08/16 00:26:15;;;;;;;14.52;9.73;;;;;;;20.64;79.69;99419.66;6258385;22;20007;-87
2023/08/16 00:28:42;;;;;;;16.77;10.60;;;;;;;20.69;81.00;99427.63;6259974;22;19999;-87
2023/08/16 00:31:10;;;;;;;15.55;10.40;;;;;;;20.44;84.07;99423.94;6258124;22;20230;-88
2023/08/16 00:33:35;;;;;;;15.45;10.10;;;;;;;20.32;83.31;99413.75;6283548;22;20350;-86
2023/08/16 00:36:01;;;;;;;17.90;10.70;;;;;;;20.29;83.23;99419.88;6256303;22;19991;-87
2023/08/16 00:38:26;;;;;;;17.33;10.18;;;;;;;20.25;82.48;99422.44;6257026;22;20461;-87
2023/08/16 00:40:52;;;;;;;13.85;9.77;;;;;;;20.24;83.67;99420.88;6257053;22;20006;-86
2023/08/16 00:43:17;;;;;;;14.00;10.07;;;;;;;20.16;82.78;99411.59;6256716;22;20003;-86
2023/08/16 00:45:44;;;;;;;15.93;11.25;;;;;;;20.23;83.82;99421.19;6256240;22;20350;-86
2023/08/16 00:48:12;;;;;;;16.85;10.93;;;;;;;20.11;82.61;99422.72;6256975;22;20021;-87
2023/08/16 00:50:37;;;;;;;16.27;11.43;;;;;;;20.02;84.41;99423.91;6258568;22;20009;-87
2023/08/16 00:53:03;;;;;;;19.17;12.30;;;;;;;20.01;84.69;99438.72;6261521;22;20002;-87
2023/08/16 00:55:28;;;;;;;15.43;11.40;;;;;;;20.04;84.29;99441.56;6261758;22;20037;-87
2023/08/16 00:57:54;;;;;;;14.35;10.45;;;;;;;19.92;83.60;99427.78;6260619;22;20437;-87
2023/08/16 01:00:22;;;;;;;16.25;10.80;;;;;;;19.98;83.21;99432.78;6261936;22;20006;-87
2023/08/16 01:02:48;;;;;;;20.02;12.30;;;;;;;19.95;84.63;99430.69;6261647;22;20037;-87
2023/08/16 01:05:13;;;;;;;14.90;10.50;;;;;;;20.05;83.10;99434.19;6262105;22;20011;-86
2023/08/16 01:07:38;;;;;;;14.48;10.70;;;;;;;20.02;82.82;99443.81;6264051;22;19998;-86
2023/08/16 01:10:09;;;;;;;15.90;11.55;;;;;;;19.89;85.00;99442.94;6263910;22;20401;-86
2023/08/16 01:12:51;;;;;;;14.80;11.07;;;;;;;19.88;84.26;99430.41;6264841;22;20002;-86
2023/08/16 01:15:21;;;;;;;;;;;;;;;19.97;84.65;99454.97;6290541;22;20232;-85
2023/08/16 01:17:46;;;;;;;19.05;11.98;;;;;;;19.83;85.98;99448.91;6289154;22;19907;-87
2023/08/16 01:20:12;;;;;;;18.88;11.88;;;;;;;19.89;85.46;99466.72;6289864;22;19995;-86
2023/08/16 01:22:50;;;;;;;17.50;11.85;;;;;;;19.75;85.38;99458.75;6289960;22;20009;-87
2023/08/16 01:25:34;;;;;;;18.38;12.52;;;;;;;19.71;84.86;99455.06;6342522;22;20003;-87
2023/08/16 01:27:59;;;;;;;17.13;12.70;;;;;;;19.71;85.90;99444.94;6290390;22;20006;-87
2023/08/16 01:30:25;;;;;;;16.42;12.27;;;;;;;19.64;85.63;99444.63;6289238;22;20030;-87
2023/08/16 01:32:51;;;;;;;15.13;12.70;;;;;;;19.59;85.57;99453.00;6263044;22;20007;-87
2023/08/16 01:35:16;;;;;;;15.07;11.20;;;;;;;19.52;84.66;99441.75;6263522;22;19995;-86
2023/08/16 01:37:42;;;;;;;19.15;11.35;;;;;;;19.53;84.11;99446.91;6288188;22;20005;-86
2023/08/16 01:40:10;;;;;;;13.55;10.52;;;;;;;19.57;83.42;99442.41;6288055;22;19995;-87
2023/08/16 01:42:39;;;;;;;17.15;11.70;;;;;;;19.69;83.37;99462.75;6264534;22;20089;-86
2023/08/16 01:45:10;;;;;;;18.73;11.10;;;;;;;19.66;83.51;99468.88;6290180;22;20007;-86
2023/08/16 01:47:36;;;;;;;17.25;11.40;;;;;;;19.61;83.46;99453.47;6265212;22;20059;-86
2023/08/16 01:50:02;;;;;;;15.48;10.98;;;;;;;19.59;84.51;99450.28;6263886;22;20421;-88
2023/08/16 01:52:28;;;;;;;16.33;11.80;;;;;;;19.70;85.19;99462.47;6263021;22;20014;-86
2023/08/16 01:54:53;;;;;;;16.35;12.48;;;;;;;19.68;85.16;99464.69;6263737;22;20085;-86
2023/08/16 01:57:19;;;;;;;14.98;11.80;;;;;;;19.65;85.21;99456.34;6263452;22;19999;-86
2023/08/16 01:59:47;;;;;;;14.90;11.75;;;;;;;19.54;84.88;99440.31;6288181;22;20322;-86
2023/08/16 02:02:13;;;;;;;15.88;11.88;;;;;;;19.51;85.65;99443.69;6263943;22;20393;-83
2023/08/16 02:04:41;;;;;;;14.95;12.18;;;;;;;19.56;85.06;99459.91;6262407;22;20001;-86
2023/08/16 02:07:07;;;;;;;17.85;12.02;;;;;;;19.51;86.00;99454.63;6263000;22;19999;-86
2023/08/16 02:09:32;;;;;;;13.55;11.30;;;;;;;19.38;85.45;99428.31;6263044;22;20003;-85
2023/08/16 02:11:58;;;;;;;19.60;12.20;;;;;;;19.51;86.30;99451.09;6263131;22;20002;-87
2023/08/16 02:14:26;;;;;;;15.02;11.90;;;;;;;19.51;85.30;99451.09;6263234;22;20009;-85
2023/08/16 02:16:51;;;;;;;14.73;11.55;;;;;;;19.52;85.75;99444.50;6263098;22;20003;-86
2023/08/16 02:19:17;;;;;;;15.32;12.20;;;;;;;19.55;85.73;99450.13;6264387;22;19982;-86
2023/08/16 02:21:42;;;;;;;15.75;12.52;;;;;;;19.31;86.39;99417.88;6263006;22;20330;-85
2023/08/16 02:24:10;;;;;;;16.88;13.10;;;;;;;19.29;86.89;99422.06;6263039;22;19995;-86
2023/08/16 02:26:36;;;;;;;19.80;12.77;;;;;;;19.30;87.76;99429.13;6262949;22;19998;-87
2023/08/16 02:29:01;;;;;;;19.60;12.63;;;;;;;19.22;87.79;99429.97;6263081;22;20003;-86
2023/08/16 02:31:27;;;;;;;17.23;12.65;;;;;;;19.23;87.24;99426.91;6262467;22;20010;-87
2023/08/16 02:33:55;;;;;;;18.42;12.93;;;;;;;19.34;85.83;99430.06;6262701;22;20006;-85
2023/08/16 02:36:21;;;;;;;16.90;12.60;;;;;;;19.34;86.74;99438.28;6262501;22;19999;-87
2023/08/16 02:38:50;;;;;;;15.15;12.82;;;;;;;19.10;86.75;99417.78;6262376;22;20456;-87
2023/08/16 02:41:15;;;;;;;18.08;12.43;;;;;;;19.23;86.49;99445.22;6263439;22;20012;-86
2023/08/16 02:43:41;;;;;;;18.35;12.77;;;;;;;19.12;87.00;99428.38;6262725;22;20429;-86
2023/08/16 02:46:07;;;;;;;17.02;12.75;;;;;;;19.02;86.65;99429.50;6261708;22;20013;-86
2023/08/16 02:48:33;;;;;;;15.77;12.48;;;;;;;19.11;86.43;99434.94;6262261;22;19995;-86
2023/08/16 02:50:59;;;;;;;16.23;12.82;;;;;;;19.09;86.55;99448.94;6263290;22;20075;-86
2023/08/16 02:53:24;;;;;;;20.08;13.02;;;;;;;19.08;86.26;99439.13;6262633;22;20118;-85
2023/08/16 02:55:50;;;;;;;17.42;13.10;;;;;;;18.98;86.88;99412.97;6262421;22;19997;-85
2023/08/16 02:58:18;;;;;;;17.45;12.40;;;;;;;19.13;86.80;99425.34;6262878;22;20032;-86
2023/08/16 03:00:43;;;;;;;15.93;12.45;;;;;;;19.14;85.65;99423.41;6263563;22;19998;-86
2023/08/16 03:03:09;;;;;;;17.25;12.07;;;;;;;19.19;85.67;99436.88;6262365;22;20001;-86
2023/08/16 03:05:35;;;;;;;15.82;12.50;;;;;;;19.18;86.28;99438.81;6262772;22;20096;-86
2023/08/16 03:08:01;;;;;;;18.73;13.57;;;;;;;19.15;85.49;99441.38;6262321;22;20056;-86
2023/08/16 03:10:26;;;;;;;16.48;13.35;;;;;;;19.09;86.33;99439.94;6262423;22;20400;-87
2023/08/16 03:12:52;;;;;;;20.20;14.05;;;;;;;19.00;86.44;99437.22;6262398;22;20002;-87
2023/08/16 03:15:18;;;;;;;19.40;13.90;;;;;;;18.93;85.94;99445.09;6263038;22;20003;-87
2023/08/16 03:17:43;;;;;;;18.75;13.43;;;;;;;19.02;86.79;99439.63;6262605;22;20425;-86
2023/08/16 03:20:09;;;;;;;19.00;13.23;;;;;;;19.02;85.91;99440.44;6289248;22;20006;-86
2023/08/16 03:22:35;;;;;;;19.42;13.43;;;;;;;18.96;86.06;99431.59;6262791;22;20005;-87
2023/08/16 03:25:00;;;;;;;17.08;13.38;;;;;;;18.96;86.24;99425.34;6262978;22;20429;-85
2023/08/16 03:27:27;;;;;;;17.75;12.55;;;;;;;18.92;86.70;99416.19;6261551;22;20030;-87
2023/08/16 03:29:52;;;;;;;19.92;13.95;;;;;;;19.00;86.53;99403.69;6262510;22;20425;-86
2023/08/16 03:32:18;;;;;;;14.52;13.00;;;;;;;18.97;85.98;99403.19;6288478;22;20003;-87
2023/08/16 03:34:44;;;;;;;19.70;14.20;;;;;;;18.93;86.72;99404.19;6262110;22;20001;-86
2023/08/16 03:37:09;;;;;;;19.85;13.52;;;;;;;18.96;86.50;99409.78;6262745;22;19999;-86
2023/08/16 03:39:35;;;;;;;18.95;12.75;;;;;;;18.92;86.02;99411.53;6287968;22;20002;-87
2023/08/16 03:42:00;;;;;;;21.10;14.23;;;;;;;18.85;86.76;99429.53;6262058;22;20028;-87
2023/08/16 03:44:26;;;;;;;18.77;13.55;;;;;;;18.81;87.88;99437.56;6261612;22;20005;-86
2023/08/16 03:46:51;;;;;;;21.98;14.20;;;;;;;18.74;87.14;99443.47;6287726;22;20002;-88
2023/08/16 03:49:17;;;;;;;17.40;13.48;;;;;;;18.73;86.65;99444.59;6263842;22;19995;-88
2023/08/16 03:51:42;;;;;;;25.58;15.63;;;;;;;18.65;87.94;99442.66;6263051;22;20438;-88
2023/08/16 03:54:08;;;;;;;19.60;13.57;;;;;;;18.64;87.14;99446.53;6263132;22;20433;-88
2023/08/16 03:56:33;;;;;;;15.35;13.48;;;;;;;18.54;87.95;99455.00;6263552;22;19995;-86
2023/08/16 03:58:59;;;;;;;18.58;13.98;;;;;;;18.41;88.77;99451.31;6288101;22;20425;-88
2023/08/16 04:01:24;;;;;;;18.23;13.73;;;;;;;18.43;88.67;99464.59;6263062;22;20017;-87
2023/08/16 04:03:50;;;;;;;17.15;14.05;;;;;;;18.53;88.67;99478.75;6261390;22;20425;-86
2023/08/16 04:06:19;;;;;;;18.70;14.73;;;;;;;18.48;88.16;99472.66;6262963;22;20010;-87
2023/08/16 04:08:45;;;;;;;18.95;13.68;;;;;;;18.41;88.11;99455.94;6264534;22;20030;-88
2023/08/16 04:11:10;;;;;;;21.85;14.02;;;;;;;18.52;87.94;99468.16;6262956;22;20009;-88
2023/08/16 04:13:38;;;;;;;21.95;13.48;;;;;;;18.56;87.48;99469.13;6262221;22;20084;-88
2023/08/16 04:16:04;;;;;;;21.08;14.63;;;;;;;18.57;87.26;99457.91;6263059;22;20005;-88
2023/08/16 04:18:29;;;;;;;20.95;13.75;;;;;;;18.57;87.16;99449.72;6262541;22;19994;-88
2023/08/16 04:20:59;;;;;;;19.30;13.45;;;;;;;18.60;86.59;99451.00;6261714;22;19999;-88
2023/08/16 04:23:25;;;;;;;20.25;13.52;;;;;;;18.64;86.96;99457.44;6262054;22;19998;-88
2023/08/16 04:25:50;;;;;;;20.13;13.82;;;;;;;18.68;87.48;99461.13;6260524;22;19999;-88
2023/08/16 04:28:16;;;;;;;20.73;13.00;;;;;;;18.64;87.49;99467.53;6263184;22;20037;-88
2023/08/16 04:30:41;;;;;;;24.23;14.38;;;;;;;18.55;87.53;99467.50;6263212;22;20383;-87
2023/08/16 04:33:07;;;;;;;23.25;14.05;;;;;;;18.59;87.43;99463.03;6261778;22;20334;-86
2023/08/16 04:35:32;;;;;;;17.20;13.68;;;;;;;18.55;87.03;99462.88;6261322;22;19995;-85
2023/08/16 04:37:58;;;;;;;21.45;13.60;;;;;;;18.65;87.08;99467.19;6262104;22;20507;-87
2023/08/16 04:40:23;;;;;;;26.20;15.02;;;;;;;18.66;86.84;99471.56;6260668;22;19994;-86
2023/08/16 04:42:49;;;;;;;21.05;15.13;;;;;;;18.66;87.07;99471.56;6261016;22;20429;-88
2023/08/16 04:45:14;;;;;;;20.30;14.07;;;;;;;18.72;85.81;99470.28;6260999;22;20440;-86
2023/08/16 04:47:40;;;;;;;28.73;15.25;;;;;;;18.87;85.42;99490.84;6261790;22;19998;-87
2023/08/16 04:50:08;;;;;;;27.00;16.75;;;;;;;18.81;86.69;99473.03;6260506;22;20005;-88
2023/08/16 04:52:37;;;;;;;23.08;15.25;;;;;;;18.89;86.05;99476.88;6263888;22;20015;-87
2023/08/16 04:55:10;;;;;;;28.52;15.57;;;;;;;19.01;86.09;99471.59;6262785;22;20471;-86
2023/08/16 04:57:36;;;;;;;25.98;16.45;;;;;;;19.03;84.95;99463.88;6261305;22;20009;-87
2023/08/16 05:00:06;;;;;;;26.42;14.85;;;;;;;19.24;85.12;99479.59;6262144;22;20077;-88
2023/08/16 05:02:32;;;;;;;20.45;14.02;;;;;;;19.22;83.77;99479.91;6288320;22;20072;-88
2023/08/16 05:04:58;;;;;;;20.90;14.88;;;;;;;19.16;84.58;99465.63;6262326;22;20002;-89
2023/08/16 05:07:26;;;;;;;20.80;13.38;;;;;;;19.32;84.84;99474.13;6259309;22;20060;-87
2023/08/16 05:09:51;;;;;;;26.52;13.15;;;;;;;19.24;83.15;99455.03;6261616;22;20033;-88
2023/08/16 05:12:22;;;;;;;16.90;12.38;;;;;;;19.46;82.91;99479.38;6260844;22;20006;-89
2023/08/16 05:14:48;;;;;;;19.57;13.03;;;;;;;19.45;83.33;99469.59;6289695;22;20357;-86
2023/08/16 05:17:13;;;;;;;23.55;13.63;;;;;;;19.54;83.06;99459.41;6263983;22;19999;-90
2023/08/16 05:19:42;;;;;;;17.73;12.15;;;;;;;19.44;82.28;99448.84;6264770;22;20341;-90
2023/08/16 05:22:07;;;;;;;23.67;14.27;;;;;;;19.78;81.06;99464.34;6261912;22;20009;-88
2023/08/16 05:24:33;;;;;;;23.42;13.98;;;;;;;19.79;81.90;99459.69;6263164;22;20437;-93
2023/08/16 05:26:59;;;;;;;24.27;12.70;;;;;;;19.79;80.85;99449.56;6264682;22;20029;-88
2023/08/16 05:29:30;;;;;;;17.80;13.05;;;;;;;19.89;81.44;99455.81;6264397;22;20006;-88
2023/08/16 05:31:57;;;;;;;22.90;13.63;;;;;;;20.22;80.53;99486.03;6266309;22;20041;-90
2023/08/16 05:34:23;;;;;;;23.75;14.18;;;;;;;20.19;79.88;99467.53;6266548;22;19995;-91
2023/08/16 05:36:50;;;;;;;22.98;12.35;;;;;;;20.45;79.84;99489.25;6266328;22;19995;-91
2023/08/16 05:39:19;;;;;;;20.85;12.70;;;;;;;20.56;79.33;99490.47;6294553;22;20003;-89
2023/08/16 05:41:44;;;;;;;16.17;12.00;;;;;;;20.39;78.18;99449.56;6265591;22;20037;-90
2023/08/16 05:44:12;;;;;;;18.77;11.88;;;;;;;20.57;78.39;99469.41;6262731;22;19999;-89
2023/08/16 05:46:39;;;;;;;17.20;12.30;;;;;;;20.56;77.85;99460.38;6265155;22;20056;-87
2023/08/16 05:49:05;;;;;;;28.40;19.20;;;;;;;20.58;77.27;99460.88;6289786;22;20447;-87
2023/08/16 05:51:32;;;;;;;29.98;19.50;;;;;;;20.77;77.05;99462.34;6263742;22;20048;-88
2023/08/16 05:53:58;;;;;;;23.33;14.40;;;;;;;20.84;76.93;99445.41;6290942;22;20085;-89
2023/08/16 05:56:23;;;;;;;23.42;13.55;;;;;;;21.12;76.00;99462.84;6266717;22;20051;-87
2023/08/16 05:58:49;;;;;;;19.98;13.15;;;;;;;21.12;76.58;99440.13;6265038;22;19995;-88
2023/08/16 06:01:14;;;;;;;21.45;12.35;;;;;;;21.23;75.52;99443.25;6266842;22;20009;-88
2023/08/16 06:03:40;;;;;;;25.92;12.43;;;;;;;21.46;74.46;99457.38;6265370;22;19999;-90
2023/08/16 06:06:06;;;;;;;21.52;12.98;;;;;;;21.45;74.35;99445.63;6263403;22;20013;-88
2023/08/16 06:08:32;;;;;;;29.38;12.68;;;;;;;21.56;75.57;99454.19;6290831;22;20341;-88
2023/08/16 06:11:01;;;;;;;20.30;12.45;;;;;;;21.47;73.43;99437.06;6289656;22;19999;-89
2023/08/16 06:13:32;;;;;;;22.98;13.25;;;;;;;21.67;73.49;99457.31;6269083;22;20341;-88
2023/08/16 06:16:16;;;;;;;19.45;13.25;;;;;;;21.64;73.48;99449.75;6289998;22;20002;-90
2023/08/16 06:18:42;;;;;;;23.92;13.05;;;;;;;21.63;72.96;99446.22;6269751;22;20026;-91
2023/08/16 06:21:20;;;;;;;18.02;12.52;;;;;;;21.81;73.12;99441.34;6267198;22;20006;-89
2023/08/16 06:23:47;;;;;;;19.40;12.07;;;;;;;21.95;71.98;99439.03;6267629;22;20087;-88
2023/08/16 06:26:13;;;;;;;23.33;12.27;;;;;;;22.05;71.30;99462.47;6264900;22;20003;-88
2023/08/16 06:28:38;;;;;;;22.23;12.15;;;;;;;22.23;71.89;99457.56;6264028;22;19991;-86
2023/08/16 06:31:04;;;;;;;16.42;11.32;;;;;;;22.37;70.86;99455.28;6264738;22;20006;-86
2023/08/16 06:33:30;;;;;;;20.15;11.70;;;;;;;22.53;70.42;99458.06;6262239;22;20010;-87
2023/08/16 06:35:56;;;;;;;21.63;12.15;;;;;;;22.48;69.60;99441.06;6262758;22;19994;-87
2023/08/16 06:38:21;;;;;;;15.93;11.10;;;;;;;22.78;68.81;99455.28;6294437;22;19998;-86
2023/08/16 06:40:53;;;;;;;21.13;13.38;;;;;;;22.75;68.54;99434.03;6265244;22;20048;-86
2023/08/16 06:43:18;;;;;;;17.67;10.43;;;;;;;22.71;67.64;99446.84;6265605;22;20064;-87
2023/08/16 06:45:46;;;;;;;21.92;11.50;;;;;;;22.94;67.60;99450.63;6290149;22;20375;-87
2023/08/16 06:48:12;;;;;;;15.50;10.43;;;;;;;23.16;68.14;99454.81;6263984;22;20031;-87
2023/08/16 06:50:38;;;;;;;18.95;10.13;;;;;;;23.45;66.51;99460.25;6263576;22;20081;-87
2023/08/16 06:53:06;;;;;;;16.13;10.13;;;;;;;23.49;66.73;99463.91;6264862;22;19998;-86
2023/08/16 06:55:38;;;;;;;18.73;9.10;;;;;;;23.74;64.98;99453.53;6265944;22;20002;-85
2023/08/16 06:58:06;;;;;;;15.45;9.52;;;;;;;23.98;65.56;99463.59;6266390;22;19999;-88
2023/08/16 07:00:44;;;;;;;10.15;7.80;;;;;;;24.18;63.68;99470.75;6267518;22;20005;-90
2023/08/16 07:03:09;;;;;;;9.90;7.82;;;;;;;24.21;63.17;99470.03;6265548;22;20002;-88
2023/08/16 07:06:10;;;;;;;9.32;6.78;;;;;;;24.31;62.53;99482.44;6264321;22;20058;-88
2023/08/16 07:08:36;;;;;;;19.37;10.40;;;;;;;24.05;62.81;99455.50;6170526;23;20016;-89
2023/08/16 07:11:02;;;;;;;12.07;7.47;;;;;;;24.52;60.29;99482.16;6240608;22;20237;-89
2023/08/16 07:13:28;;;;;;;11.30;7.72;;;;;;;24.62;59.28;99460.72;6291568;22;20003;-88
2023/08/16 07:15:53;;;;;;;13.27;8.07;;;;;;;24.83;58.89;99460.38;6293083;22;19999;-92
2023/08/16 07:18:19;;;;;;;16.02;7.72;;;;;;;24.92;58.94;99436.16;6267751;22;20010;-88
2023/08/16 07:21:01;;;;;;;11.85;7.45;;;;;;;24.94;58.52;99437.38;6295197;22;20100;-88
2023/08/16 07:23:35;;;;;;;10.43;6.78;;;;;;;24.70;58.37;99444.00;6267623;22;19999;-88
2023/08/16 07:26:03;;;;;;;9.80;6.88;;;;;;;24.87;58.74;99461.25;6293739;22;20452;-88
2023/08/16 07:28:32;;;;;;;17.05;12.23;;;;;;;25.06;57.80;99463.19;6291431;22;20024;-89
2023/08/16 07:30:58;;;;;;;15.93;7.80;;;;;;;24.98;58.24;99457.53;6269032;22;20003;-89
2023/08/16 07:33:24;;;;;;;9.25;6.70;;;;;;;25.13;57.85;99461.38;6291429;22;20026;-88
2023/08/16 07:35:50;;;;;;;16.70;8.82;;;;;;;25.18;57.84;99446.50;6265829;22;19995;-88
2023/08/16 07:38:16;;;;;;;12.00;6.25;;;;;;;25.40;56.74;99448.53;6289706;22;20470;-88
2023/08/16 07:41:23;;;;;;;11.20;8.05;;;;;;;25.51;56.03;99443.19;6263259;22;19995;-89
2023/08/16 07:43:48;;;;;;;13.00;6.50;;;;;;;25.54;56.45;99436.16;6168512;23;20451;-90
2023/08/16 07:46:19;;;;;;;11.10;6.43;;;;;;;25.78;56.41;99451.53;6250954;22;20068;-91
2023/08/16 07:49:10;;;;;;;9.35;5.82;;;;;;;25.91;54.97;99450.19;6270942;22;19998;-90
2023/08/16 07:51:46;;;;;;;;;;;;;;;;;;;;;
2023/08/16 07:54:12;;;;;;;12.63;7.07;;;;;;;26.14;54.41;99468.66;6184550;23;20034;-88
2023/08/16 07:56:49;;;;;;;9.43;6.15;;;;;;;26.06;54.40;99478.78;6180623;23;19996;-89
2023/08/16 07:59:14;;;;;;;8.43;4.88;;;;;;;25.91;53.98;99450.19;6228793;23;20000;-90
2023/08/16 08:01:40;;;;;;;10.50;5.88;;;;;;;26.06;54.09;99453.16;6200499;23;20000;-89
2023/08/16 08:04:06;;;;;;;13.50;6.30;;;;;;;25.87;55.00;99468.63;6197709;23;20007;-87
2023/08/16 08:06:32;;;;;;;11.73;6.72;;;;;;;25.88;55.47;99478.50;6173348;23;20012;-88
2023/08/16 08:08:58;;;;;;;18.45;6.72;;;;;;;25.93;55.16;99475.44;6175243;23;20096;-88
2023/08/16 08:11:25;;;;;;;10.35;6.03;;;;;;;25.77;54.88;99464.53;6201094;23;20465;-87
2023/08/16 08:13:52;;;;;;;10.27;5.78;;;;;;;25.78;55.53;99471.63;6201979;23;20003;-87
2023/08/16 08:16:18;;;;;;;10.15;6.63;;;;;;;25.85;54.89;99472.91;6178363;23;20343;-87
2023/08/16 08:18:43;;;;;;;8.57;6.15;;;;;;;25.93;55.48;99466.38;6176912;23;20000;-87
2023/08/16 08:21:10;;;;;;;17.17;6.43;;;;;;;25.87;54.79;99471.38;6213439;22;20024;-88
2023/08/16 08:23:35;;;;;;;8.88;5.80;;;;;;;25.92;55.08;99484.91;6270526;22;20444;-87
2023/08/16 08:26:27;;;;;;;8.07;5.65;;;;;;;25.88;55.78;99481.25;6266317;22;20056;-88
2023/08/16 08:28:53;;;;;;;;;;;;;;;26.08;55.57;99501.28;6275949;22;20003;-87
2023/08/16 08:31:21;;;;;;;8.20;6.18;;;;;;;26.19;54.73;99493.22;6290977;22;19902;-87
2023/08/16 08:33:47;;;;;;;9.63;7.15;;;;;;;26.00;54.84;99488.56;6266079;22;20002;-87
2023/08/16 08:36:12;;;;;;;10.65;6.30;;;;;;;26.00;55.14;99491.31;6291343;22;19998;-85
2023/08/16 08:39:06;;;;;;;8.10;6.32;;;;;;;26.15;55.47;99508.91;6266390;22;20040;-90
2023/08/16 08:41:32;;;;;;;13.88;9.93;;;;;;;26.06;55.32;99489.03;6277509;22;20034;-87
2023/08/16 08:46:34;;;;;;;8.57;5.80;;;;;;;26.15;55.53;99482.09;6295123;22;20327;-86
2023/08/16 08:53:28;;;;;;;;;;;;;;;;;;;;;
2023/08/16 08:56:59;;;;;;;8.45;5.40;;;;;;;26.87;53.49;99493.38;6164939;23;20476;-85
2023/08/16 09:02:55;;;;;;;10.70;5.88;;;;;;;26.79;52.76;99470.38;6089266;23;20008;-86
2023/08/16 09:05:25;;;;;;;11.20;5.60;;;;;;;26.58;53.24;99466.19;6194498;23;20439;-89
2023/08/16 09:08:06;;;;;;;10.25;6.10;;;;;;;26.76;53.79;99465.63;6256861;22;19982;-87
2023/08/16 09:10:38;;;;;;;12.68;6.95;;;;;;;26.90;53.68;99451.97;6263739;22;20421;-87
2023/08/16 09:13:08;;;;;;;10.77;5.70;;;;;;;27.01;53.17;99452.09;6285328;22;20069;-89
2023/08/16 09:15:34;;;;;;;12.55;5.90;;;;;;;27.35;53.00;99475.03;6288424;22;19998;-89
2023/08/16 09:18:15;;;;;;;7.45;5.28;;;;;;;27.50;52.05;99442.75;6286797;22;19999;-87
2023/08/16 09:20:49;;;;;;;9.85;5.40;;;;;;;27.80;52.49;99456.44;6264980;22;20002;-90
2023/08/16 09:23:15;;;;;;;9.85;5.90;;;;;;;27.74;50.99;99455.22;6267609;22;20059;-88
2023/08/16 09:25:41;;;;;;;11.82;6.00;;;;;;;27.61;51.08;99449.16;6262797;22;19999;-89
2023/08/16 09:28:16;;;;;;;7.70;4.97;;;;;;;27.63;51.92;99461.84;6264324;22;20029;-86
2023/08/16 09:30:42;;;;;;;14.63;5.50;;;;;;;27.50;51.23;99453.81;6265123;22;20001;-87
2023/08/16 09:33:10;;;;;;;9.70;5.57;;;;;;;27.70;52.43;99468.22;6265038;22;19995;-94
2023/08/16 09:35:51;;;;;;;8.73;5.50;;;;;;;27.59;51.98;99461.81;6271100;22;20019;-92
2023/08/16 09:38:26;;;;;;;12.65;5.60;;;;;;;27.75;51.33;99447.72;6273405;22;20002;-92
2023/08/16 09:40:52;;;;;;;7.43;5.22;;;;;;;27.69;52.17;99465.84;6270961;22;19990;-96
2023/08/16 09:43:18;;;;;;;12.68;6.50;;;;;;;27.73;52.75;99473.00;6295056;22;20003;-93
2023/08/16 09:46:20;;;;;;;12.27;8.63;;;;;;;27.74;52.14;99452.44;6271399;22;20326;-92
2023/08/16 09:49:14;;;;;;;13.10;6.25;;;;;;;27.80;53.11;99464.75;6301511;22;20073;-95
2023/08/16 09:51:42;;;;;;;13.15;6.38;;;;;;;27.74;52.57;99457.97;6301013;22;19998;-92
2023/08/16 09:54:19;;;;;;;10.65;5.57;;;;;;;27.85;51.79;99448.97;6262555;22;20011;-93
2023/08/16 09:56:45;;;;;;;12.18;8.13;;;;;;;27.93;52.80;99468.06;6234752;22;20000;-94
2023/08/16 09:59:19;;;;;;;11.13;6.05;;;;;;;27.75;52.28;99453.25;6238877;22;20434;-91
2023/08/16 10:01:49;;;;;;;16.40;6.95;;;;;;;27.80;52.56;99475.03;6213197;22;20003;-94
2023/08/16 10:04:25;;;;;;;8.23;5.88;;;;;;;28.09;51.93;99466.97;6215655;22;20037;-92
2023/08/16 10:06:51;;;;;;;10.73;7.22;;;;;;;28.16;52.33;99467.00;6243320;22;20067;-95
2023/08/16 10:09:50;;;;;;;8.13;5.25;;;;;;;28.13;51.91;99471.34;6247059;22;20007;-96
2023/08/16 10:15:09;;;;;;;12.23;5.88;;;;;;;28.16;51.46;99453.16;6171500;22;20022;-93
2023/08/16 10:17:49;;;;;;;9.73;5.15;;;;;;;28.32;51.47;99452.88;6214359;22;20021;-92
2023/08/16 10:20:25;;;;;;;12.55;5.43;;;;;;;28.26;52.05;99479.34;6239997;22;20001;-93
2023/08/16 10:22:57;;;;;;;6.13;4.00;;;;;;;28.16;51.13;99467.00;6243411;22;20383;-94
2023/08/16 10:25:27;;;;;;;9.45;5.43;;;;;;;28.25;50.95;99461.94;6222569;22;20047;-94
2023/08/16 10:28:02;;;;;;;8.98;5.30;;;;;;;28.15;50.85;99465.44;6231146;22;20006;-93
2023/08/16 10:30:51;;;;;;;10.13;4.72;;;;;;;28.00;51.38;99454.25;6252712;22;20010;-95
2023/08/16 10:33:37;;;;;;;9.30;4.70;;;;;;;28.01;51.80;99435.69;6252585;22;20005;-94
2023/08/16 10:39:29;;;;;;;8.85;4.25;;;;;;;27.90;52.30;99452.22;6161522;23;20501;-95
2023/08/16 10:42:13;;;;;;;8.70;4.50;;;;;;;27.79;52.32;99443.81;6217430;23;20001;-95
2023/08/16 10:44:54;;;;;;;9.68;4.85;;;;;;;27.92;52.38;99440.75;6216611;22;19996;-95
2023/08/16 10:47:50;;;;;;;16.98;5.30;;;;;;;28.07;52.24;99442.44;6211206;23;20018;-94
2023/08/16 10:50:19;;;;;;;11.50;4.35;;;;;;;28.27;51.08;99429.13;6262224;23;19999;-93
2023/08/16 10:52:46;;;;;;;8.32;4.53;;;;;;;28.55;51.10;99456.19;6185973;23;19988;-96
2023/08/16 10:55:29;;;;;;;9.43;4.03;;;;;;;28.26;51.33;99421.19;6186810;23;20020;-93
2023/08/16 10:57:55;;;;;;;10.18;4.30;;;;;;;28.51;50.94;99433.22;6236854;23;20004;-96
2023/08/16 11:00:40;;;;;;;7.60;4.10;;;;;;;28.53;50.73;99413.44;6208981;23;20000;-96
2023/08/16 11:03:25;;;;;;;9.30;4.40;;;;;;;28.87;50.07;99425.06;6186226;23;20000;-94
2023/08/16 11:10:31;;;;;;;;;;;;;;;;;;;;;
2023/08/16 11:12:59;;;;;;;7.95;3.53;;;;;;;29.53;47.90;99413.75;6225796;23;20035;-90
2023/08/16 11:15:26;;;;;;;7.40;3.90;;;;;;;29.68;48.06;99433.16;6195594;23;20027;-90
2023/08/16 11:17:55;;;;;;;8.95;3.42;;;;;;;29.87;48.06;99427.22;6189273;22;20113;-89
2023/08/16 11:20:21;;;;;;;5.95;3.75;;;;;;;30.09;47.62;99405.78;6253043;22;19999;-87
2023/08/16 11:22:49;;;;;;;6.65;3.70;;;;;;;29.93;46.29;99395.09;6228610;22;20425;-90
2023/08/16 11:25:15;;;;;;;7.00;3.88;;;;;;;30.23;46.32;99416.06;6229564;22;20008;-89
2023/08/16 11:28:34;;;;;;;8.93;3.88;;;;;;;30.16;46.77;99407.75;6127808;22;20402;-90
2023/08/16 11:35:02;;;;;;;9.07;4.43;;;;;;;30.06;47.12;99414.13;6165295;23;20065;-87
2023/08/16 11:37:29;;;;;;;6.93;4.15;;;;;;;30.15;45.97;99381.16;6222941;23;20074;-89
2023/08/16 11:40:07;;;;;;;9.40;3.67;;;;;;;30.17;46.67;99403.75;6199584;23;20008;-89
2023/08/16 11:42:36;;;;;;;7.03;3.60;;;;;;;30.18;46.06;99399.81;6200077;23;20067;-91
2023/08/16 11:45:03;;;;;;;6.45;3.78;;;;;;;30.12;46.48;99395.84;6199715;23;20000;-91
2023/08/16 11:47:31;;;;;;;5.28;3.75;;;;;;;29.92;45.93;99373.28;6214169;22;20008;-90
2023/08/16 11:50:08;;;;;;;5.38;4.25;;;;;;;30.22;45.72;99392.25;6257238;22;20015;-91
2023/08/16 11:52:34;;;;;;;8.07;3.92;;;;;;;30.28;46.24;99379.53;6231039;22;20090;-90
2023/08/16 11:55:01;;;;;;;9.52;3.67;;;;;;;30.40;45.37;99381.09;6256000;22;20477;-87
2023/08/16 11:57:26;;;;;;;14.68;4.70;;;;;;;30.28;45.81;99374.00;6253251;22;20124;-88
2023/08/16 11:59:55;;;;;;;7.30;5.43;;;;;;;30.62;45.54;99381.81;6224296;22;20378;-88
2023/08/16 12:02:27;;;;;;;4.82;3.55;;;;;;;30.49;44.74;99380.69;6241872;22;20005;-88